createdAt,value
2022-09-04T00:00:57.743Z,15.76
2022-09-04T00:03:54.300Z,15.69
2022-09-04T00:04:54.313Z,15.76
2022-09-04T00:05:54.265Z,15.69
2022-09-04T00:06:54.343Z,15.62
2022-09-04T00:07:54.031Z,15.68
2022-09-04T00:08:53.998Z,15.67
2022-09-04T00:09:53.923Z,15.62
2022-09-04T00:10:54.014Z,15.67
2022-09-04T00:11:54.050Z,15.64
2022-09-04T00:12:53.941Z,15.57
2022-09-04T00:13:53.858Z,15.59
2022-09-04T00:14:53.911Z,15.60
2022-09-04T00:15:53.847Z,15.51
2022-09-04T00:16:53.919Z,15.47
2022-09-04T00:17:53.803Z,15.43
2022-09-04T00:18:53.809Z,15.50
2022-09-04T00:19:53.830Z,15.44
2022-09-04T00:20:53.766Z,15.49
2022-09-04T00:21:53.794Z,15.39
2022-09-04T00:22:53.740Z,15.47
2022-09-04T00:23:54.189Z,15.46
2022-09-04T00:24:53.727Z,15.43
2022-09-04T00:25:53.732Z,15.35
2022-09-04T00:26:53.757Z,15.36
2022-09-04T00:27:56.718Z,15.34
2022-09-04T00:28:53.736Z,15.35
2022-09-04T00:29:53.674Z,15.36
2022-09-04T00:30:53.688Z,15.28
2022-09-04T00:31:53.648Z,15.38
2022-09-04T00:32:53.735Z,15.28
2022-09-04T00:33:53.627Z,15.31
2022-09-04T00:34:53.626Z,15.29
2022-09-04T00:35:53.702Z,15.27
2022-09-04T00:36:53.626Z,15.31
2022-09-04T00:37:53.602Z,15.32
2022-09-04T00:38:53.607Z,15.28
2022-09-04T00:39:53.648Z,15.28
2022-09-04T00:40:53.606Z,15.29
2022-09-04T00:41:53.540Z,15.31
2022-09-04T00:42:53.550Z,15.23
2022-09-04T00:43:53.590Z,15.23
2022-09-04T00:44:53.484Z,15.11
2022-09-04T00:45:53.546Z,15.19
2022-09-04T00:46:53.488Z,15.10
2022-09-04T00:47:53.515Z,15.09
2022-09-04T00:48:53.489Z,15.16
2022-09-04T00:49:53.432Z,15.13
2022-09-04T00:50:53.419Z,15.11
2022-09-04T00:51:53.442Z,15.09
2022-09-04T00:52:53.771Z,15.09
2022-09-04T00:53:54.414Z,14.98
2022-09-04T00:54:53.399Z,15.07
2022-09-04T00:55:53.371Z,15.09
2022-09-04T00:56:53.339Z,14.99
2022-09-04T00:57:53.436Z,15.01
2022-09-04T00:58:53.341Z,15.03
2022-09-04T00:59:53.315Z,14.99
2022-09-04T01:00:53.411Z,14.98
2022-09-04T01:01:53.447Z,15.01
2022-09-04T01:02:53.347Z,15.01
2022-09-04T01:03:53.356Z,14.96
2022-09-04T01:04:53.251Z,14.92
2022-09-04T01:05:53.266Z,14.99
2022-09-04T01:06:53.254Z,14.99
2022-09-04T01:07:53.220Z,14.92
2022-09-04T01:08:56.365Z,14.89
2022-09-04T01:09:53.226Z,14.95
2022-09-04T01:10:53.205Z,14.94
2022-09-04T01:11:53.241Z,14.89
2022-09-04T01:12:53.160Z,14.99
2022-09-04T01:13:53.247Z,14.89
2022-09-04T01:14:53.408Z,14.94
2022-09-04T01:15:53.206Z,14.91
2022-09-04T01:16:53.160Z,14.94
2022-09-04T01:17:53.154Z,14.91
2022-09-04T01:18:53.142Z,14.89
2022-09-04T01:19:53.125Z,14.73
2022-09-04T01:20:53.088Z,14.75
2022-09-04T01:21:53.081Z,14.81
2022-09-04T01:22:53.062Z,14.78
2022-09-04T01:23:53.171Z,14.78
2022-09-04T01:24:53.034Z,14.89
2022-09-04T01:25:53.109Z,14.75
2022-09-04T01:26:53.012Z,14.80
2022-09-04T01:27:53.052Z,14.68
2022-09-04T01:28:53.044Z,14.72
2022-09-04T01:29:52.982Z,14.68
2022-09-04T01:30:52.972Z,14.62
2022-09-04T01:31:53.027Z,14.70
2022-09-04T01:32:52.977Z,14.70
2022-09-04T01:33:53.008Z,14.75
2022-09-04T01:34:52.922Z,14.61
2022-09-04T01:35:52.935Z,14.58
2022-09-04T01:36:52.901Z,14.58
2022-09-04T01:37:52.927Z,14.55
2022-09-04T01:38:52.863Z,14.51
2022-09-04T01:39:52.937Z,14.55
2022-09-04T01:40:52.877Z,14.43
2022-09-04T01:41:52.841Z,14.47
2022-09-04T01:42:52.835Z,14.45
2022-09-04T01:43:52.856Z,14.36
2022-09-04T01:44:52.863Z,14.40
2022-09-04T01:45:52.999Z,14.43
2022-09-04T01:46:52.864Z,14.37
2022-09-04T01:47:52.797Z,14.37
2022-09-04T01:48:52.781Z,14.43
2022-09-04T01:49:52.760Z,14.37
2022-09-04T01:50:52.808Z,14.32
2022-09-04T01:51:52.734Z,14.35
2022-09-04T01:52:52.760Z,14.29
2022-09-04T01:53:52.719Z,14.28
2022-09-04T01:54:52.842Z,14.28
2022-09-04T01:55:52.707Z,14.28
2022-09-04T01:56:52.777Z,14.28
2022-09-04T01:57:52.684Z,14.27
2022-09-04T01:58:52.708Z,14.32
2022-09-04T01:59:53.823Z,14.29
2022-09-04T02:00:55.492Z,14.29
2022-09-04T02:01:53.706Z,14.25
2022-09-04T02:02:53.281Z,14.32
2022-09-04T02:03:52.615Z,14.27
2022-09-04T02:04:52.612Z,14.29
2022-09-04T02:05:52.639Z,14.25
2022-09-04T02:06:52.603Z,14.28
2022-09-04T02:07:52.557Z,14.33
2022-09-04T02:08:55.233Z,14.39
2022-09-04T02:09:53.916Z,14.32
2022-09-04T02:10:52.566Z,14.40
2022-09-04T02:11:55.377Z,14.42
2022-09-04T02:12:52.495Z,14.39
2022-09-04T02:13:52.497Z,14.37
2022-09-04T02:14:52.498Z,14.42
2022-09-04T02:15:52.465Z,14.40
2022-09-04T02:16:52.507Z,14.37
2022-09-04T02:17:52.449Z,14.45
2022-09-04T02:18:52.461Z,14.40
2022-09-04T02:19:52.461Z,14.45
2022-09-04T02:20:52.424Z,14.36
2022-09-04T02:21:52.416Z,14.37
2022-09-04T02:22:52.413Z,14.43
2022-09-04T02:23:52.396Z,14.43
2022-09-04T02:24:52.361Z,14.39
2022-09-04T02:25:52.347Z,14.27
2022-09-04T02:26:52.355Z,14.27
2022-09-04T02:27:52.346Z,14.27
2022-09-04T02:28:52.332Z,14.35
2022-09-04T02:29:52.298Z,14.32
2022-09-04T02:30:54.491Z,14.27
2022-09-04T02:31:52.327Z,14.27
2022-09-04T02:32:52.357Z,14.29
2022-09-04T02:33:52.245Z,14.25
2022-09-04T02:34:52.306Z,14.35
2022-09-04T02:35:52.228Z,14.37
2022-09-04T02:36:52.224Z,14.42
2022-09-04T02:37:52.230Z,14.27
2022-09-04T02:38:52.282Z,14.42
2022-09-04T02:39:52.331Z,14.40
2022-09-04T02:40:52.205Z,14.37
2022-09-04T02:41:52.167Z,14.27
2022-09-04T02:42:52.171Z,14.28
2022-09-04T02:43:52.248Z,14.40
2022-09-04T02:44:52.140Z,14.28
2022-09-04T02:45:52.229Z,14.27
2022-09-04T02:46:52.218Z,14.42
2022-09-04T02:47:52.094Z,14.43
2022-09-04T02:48:52.091Z,14.37
2022-09-04T02:49:52.150Z,14.42
2022-09-04T02:50:52.166Z,14.40
2022-09-04T02:51:52.120Z,14.43
2022-09-04T02:52:52.088Z,14.42
2022-09-04T02:53:52.137Z,14.39
2022-09-04T02:54:52.033Z,14.39
2022-09-04T02:55:52.233Z,14.39
2022-09-04T02:56:52.048Z,14.35
2022-09-04T02:57:52.051Z,14.39
2022-09-04T02:58:51.971Z,14.40
2022-09-04T02:59:52.013Z,14.37
2022-09-04T03:00:51.988Z,14.39
2022-09-04T03:01:52.062Z,14.35
2022-09-04T03:02:52.076Z,14.40
2022-09-04T03:03:52.082Z,14.27
2022-09-04T03:04:51.917Z,14.40
2022-09-04T03:05:51.882Z,14.37
2022-09-04T03:06:51.893Z,14.43
2022-09-04T03:07:51.921Z,14.40
2022-09-04T03:08:51.881Z,14.39
2022-09-04T03:09:51.858Z,14.37
2022-09-04T03:10:51.902Z,14.39
2022-09-04T03:11:51.912Z,14.27
2022-09-04T03:12:51.918Z,14.35
2022-09-04T03:13:51.831Z,14.27
2022-09-04T03:14:51.789Z,14.28
2022-09-04T03:15:51.848Z,14.39
2022-09-04T03:16:51.774Z,14.25
2022-09-04T03:17:51.758Z,14.29
2022-09-04T03:18:51.873Z,14.33
2022-09-04T03:19:51.848Z,14.33
2022-09-04T03:20:51.770Z,14.32
2022-09-04T03:21:51.732Z,14.29
2022-09-04T03:22:51.699Z,14.36
2022-09-04T03:23:51.739Z,14.33
2022-09-04T03:24:51.717Z,14.28
2022-09-04T03:25:51.722Z,14.28
2022-09-04T03:26:51.728Z,14.24
2022-09-04T03:27:51.636Z,14.21
2022-09-04T03:28:51.649Z,14.29
2022-09-04T03:29:51.664Z,14.29
2022-09-04T03:30:51.663Z,14.27
2022-09-04T03:31:51.801Z,14.32
2022-09-04T03:32:51.598Z,14.33
2022-09-04T03:33:51.580Z,14.33
2022-09-04T03:34:51.613Z,14.32
2022-09-04T03:35:51.576Z,14.29
2022-09-04T03:36:51.630Z,14.33
2022-09-04T03:37:51.538Z,14.28
2022-09-04T03:38:51.573Z,14.27
2022-09-04T03:39:51.617Z,14.28
2022-09-04T03:40:51.486Z,14.36
2022-09-04T03:41:51.517Z,14.25
2022-09-04T03:42:51.484Z,14.22
2022-09-04T03:43:51.494Z,14.18
2022-09-04T03:44:52.321Z,14.25
2022-09-04T03:45:51.529Z,14.24
2022-09-04T03:46:51.511Z,14.25
2022-09-04T03:47:51.460Z,14.15
2022-09-04T03:48:51.408Z,14.17
2022-09-04T03:49:52.267Z,14.17
2022-09-04T03:50:51.480Z,14.17
2022-09-04T03:51:51.388Z,14.12
2022-09-04T03:52:51.379Z,14.09
2022-09-04T03:53:51.405Z,14.10
2022-09-04T03:54:51.387Z,13.97
2022-09-04T03:55:51.309Z,14.06
2022-09-04T03:56:51.319Z,14.09
2022-09-04T03:57:51.285Z,14.06
2022-09-04T03:58:51.321Z,14.03
2022-09-04T03:59:51.331Z,13.97
2022-09-04T04:00:51.332Z,13.99
2022-09-04T04:01:51.294Z,13.97
2022-09-04T04:02:51.345Z,13.99
2022-09-04T04:03:51.241Z,13.96
2022-09-04T04:04:51.245Z,13.96
2022-09-04T04:05:51.298Z,13.95
2022-09-04T04:06:51.323Z,13.96
2022-09-04T04:07:51.229Z,13.96
2022-09-04T04:08:51.174Z,13.97
2022-09-04T04:09:51.183Z,13.85
2022-09-04T04:10:51.216Z,13.95
2022-09-04T04:11:51.142Z,13.92
2022-09-04T04:12:51.170Z,13.85
2022-09-04T04:13:51.141Z,13.97
2022-09-04T04:14:51.118Z,13.89
2022-09-04T04:15:51.179Z,13.92
2022-09-04T04:16:56.045Z,13.91
2022-09-04T04:17:52.062Z,13.97
2022-09-04T04:18:51.058Z,13.91
2022-09-04T04:19:51.054Z,13.87
2022-09-04T04:20:51.081Z,13.88
2022-09-04T04:21:51.051Z,13.88
2022-09-04T04:22:51.003Z,13.88
2022-09-04T04:23:51.026Z,13.92
2022-09-04T04:24:50.993Z,13.85
2022-09-04T04:25:52.606Z,13.85
2022-09-04T04:26:54.698Z,13.84
2022-09-04T04:27:50.984Z,13.84
2022-09-04T04:28:50.954Z,13.89
2022-09-04T04:29:50.941Z,13.82
2022-09-04T04:30:50.930Z,13.87
2022-09-04T04:31:50.931Z,13.84
2022-09-04T04:32:51.030Z,13.81
2022-09-04T04:33:50.897Z,13.82
2022-09-04T04:34:50.877Z,13.91
2022-09-04T04:35:50.907Z,13.71
2022-09-04T04:36:50.891Z,13.81
2022-09-04T04:37:50.887Z,13.78
2022-09-04T04:38:50.828Z,13.82
2022-09-04T04:39:50.917Z,13.79
2022-09-04T04:40:50.863Z,13.78
2022-09-04T04:41:50.811Z,13.73
2022-09-04T04:42:50.793Z,13.77
2022-09-04T04:43:50.796Z,13.78
2022-09-04T04:44:50.869Z,13.78
2022-09-04T04:45:50.764Z,13.66
2022-09-04T04:46:50.766Z,13.64
2022-09-04T04:47:50.737Z,13.64
2022-09-04T04:48:50.867Z,13.60
2022-09-04T04:49:50.769Z,13.52
2022-09-04T04:50:50.703Z,13.52
2022-09-04T04:51:50.695Z,13.52
2022-09-04T04:52:50.764Z,13.49
2022-09-04T04:53:50.666Z,13.55
2022-09-04T04:54:50.701Z,13.48
2022-09-04T04:55:50.685Z,13.49
2022-09-04T04:56:50.638Z,13.42
2022-09-04T04:57:50.626Z,13.39
2022-09-04T04:58:50.629Z,13.49
2022-09-04T04:59:50.634Z,13.38
2022-09-04T05:00:50.654Z,13.38
2022-09-04T05:01:50.763Z,13.32
2022-09-04T05:02:50.605Z,13.42
2022-09-04T05:03:50.610Z,13.38
2022-09-04T05:04:50.597Z,13.45
2022-09-04T05:05:50.572Z,13.33
2022-09-04T05:06:50.560Z,13.32
2022-09-04T05:07:50.509Z,13.38
2022-09-04T05:08:50.518Z,13.33
2022-09-04T05:09:50.485Z,13.29
2022-09-04T05:10:50.504Z,13.30
2022-09-04T05:11:50.568Z,13.32
2022-09-04T05:12:50.507Z,13.36
2022-09-04T05:13:52.731Z,13.28
2022-09-04T05:14:50.537Z,13.28
2022-09-04T05:16:07.941Z,13.36
2022-09-04T05:16:55.609Z,13.22
2022-09-04T05:17:50.463Z,13.33
2022-09-04T05:18:50.442Z,13.29
2022-09-04T05:19:52.309Z,13.36
2022-09-04T05:20:50.422Z,13.32
2022-09-04T05:21:50.365Z,13.33
2022-09-04T05:22:50.401Z,13.23
2022-09-04T05:23:50.352Z,13.39
2022-09-04T05:24:50.330Z,13.28
2022-09-04T05:25:51.344Z,13.36
2022-09-04T05:26:50.414Z,13.38
2022-09-04T05:27:50.293Z,13.36
2022-09-04T05:28:50.298Z,13.39
2022-09-04T05:29:50.335Z,13.32
2022-09-04T05:30:50.933Z,13.39
2022-09-04T05:31:50.268Z,13.33
2022-09-04T05:32:50.900Z,13.42
2022-09-04T05:33:54.036Z,13.48
2022-09-04T05:34:50.217Z,13.41
2022-09-04T05:35:53.024Z,13.48
2022-09-04T05:36:50.196Z,13.41
2022-09-04T05:37:50.177Z,13.48
2022-09-04T05:38:50.330Z,13.45
2022-09-04T05:39:50.231Z,13.54
2022-09-04T05:40:50.205Z,13.52
2022-09-04T05:41:50.140Z,13.59
2022-09-04T05:42:50.155Z,13.52
2022-09-04T05:43:50.191Z,13.69
2022-09-04T05:44:50.179Z,13.63
2022-09-04T05:45:50.171Z,13.69
2022-09-04T05:46:52.206Z,13.70
2022-09-04T05:47:50.144Z,13.71
2022-09-04T05:48:50.092Z,13.73
2022-09-04T05:49:50.090Z,13.81
2022-09-04T05:50:50.066Z,13.77
2022-09-04T05:51:50.030Z,13.77
2022-09-04T05:52:50.093Z,13.70
2022-09-04T05:53:50.009Z,13.89
2022-09-04T05:54:49.997Z,13.82
2022-09-04T05:55:50.036Z,13.81
2022-09-04T05:56:49.977Z,13.85
2022-09-04T05:57:49.989Z,13.91
2022-09-04T05:58:50.003Z,13.96
2022-09-04T05:59:49.964Z,13.95
2022-09-04T06:00:49.949Z,14.00
2022-09-04T06:01:51.967Z,14.06
2022-09-04T06:02:49.965Z,14.03
2022-09-04T06:03:49.901Z,14.06
2022-09-04T06:04:49.884Z,14.17
2022-09-04T06:05:49.931Z,14.22
2022-09-04T06:06:49.884Z,14.42
2022-09-04T06:07:49.921Z,15.03
2022-09-04T06:08:49.903Z,15.68
2022-09-04T06:09:49.920Z,16.33
2022-09-04T06:10:49.865Z,17.07
2022-09-04T06:11:49.896Z,17.71
2022-09-04T06:12:49.826Z,18.36
2022-09-04T06:13:49.819Z,19.06
2022-09-04T06:14:49.797Z,19.56
2022-09-04T06:15:49.837Z,20.01
2022-09-04T06:16:49.807Z,20.58
2022-09-04T06:17:49.759Z,21.09
2022-09-04T06:18:49.758Z,21.50
2022-09-04T06:19:49.878Z,21.79
2022-09-04T06:20:49.851Z,22.03
2022-09-04T06:21:49.758Z,22.39
2022-09-04T06:22:53.801Z,22.90
2022-09-04T06:23:50.710Z,23.38
2022-09-04T06:24:49.675Z,23.73
2022-09-04T06:25:49.725Z,23.97
2022-09-04T06:26:49.733Z,24.25
2022-09-04T06:27:49.660Z,24.00
2022-09-04T06:28:49.761Z,23.87
2022-09-04T06:29:49.611Z,23.63
2022-09-04T06:30:49.758Z,23.31
2022-09-04T06:31:49.611Z,23.10
2022-09-04T06:32:49.579Z,22.92
2022-09-04T06:33:49.628Z,22.65
2022-09-04T06:34:49.558Z,22.64
2022-09-04T06:35:49.590Z,22.52
2022-09-04T06:36:49.542Z,22.28
2022-09-04T06:37:49.602Z,22.05
2022-09-04T06:38:49.512Z,21.91
2022-09-04T06:39:49.573Z,21.90
2022-09-04T06:40:49.560Z,21.61
2022-09-04T06:41:49.551Z,21.58
2022-09-04T06:42:49.466Z,21.37
2022-09-04T06:43:49.456Z,21.24
2022-09-04T06:44:50.510Z,21.10
2022-09-04T06:45:49.461Z,21.12
2022-09-04T06:46:49.476Z,20.89
2022-09-04T06:47:49.433Z,20.84
2022-09-04T06:48:49.484Z,20.70
2022-09-04T06:49:49.416Z,20.70
2022-09-04T06:50:49.371Z,20.55
2022-09-04T06:51:57.199Z,20.50
2022-09-04T06:52:50.024Z,20.38
2022-09-04T06:53:49.590Z,20.21
2022-09-04T06:54:49.451Z,19.99
2022-09-04T06:55:49.724Z,19.88
2022-09-04T06:56:49.404Z,19.77
2022-09-04T06:57:49.312Z,19.65
2022-09-04T06:58:49.325Z,19.54
2022-09-04T06:59:49.281Z,19.62
2022-09-04T07:00:49.327Z,19.63
2022-09-04T07:01:49.359Z,19.69
2022-09-04T07:02:49.367Z,19.65
2022-09-04T07:03:49.255Z,19.71
2022-09-04T07:04:49.219Z,19.83
2022-09-04T07:05:49.234Z,19.80
2022-09-04T07:06:49.189Z,19.88
2022-09-04T07:07:49.226Z,19.87
2022-09-04T07:08:49.169Z,19.91
2022-09-04T07:09:49.156Z,19.92
2022-09-04T07:10:49.163Z,19.98
2022-09-04T07:11:49.154Z,20.02
2022-09-04T07:12:49.201Z,19.95
2022-09-04T07:13:49.121Z,19.99
2022-09-04T07:14:49.100Z,20.02
2022-09-04T07:15:49.153Z,20.01
2022-09-04T07:16:49.120Z,20.06
2022-09-04T07:17:49.067Z,20.26
2022-09-04T07:18:49.054Z,20.38
2022-09-04T07:19:49.045Z,20.74
2022-09-04T07:20:49.038Z,20.84
2022-09-04T07:21:49.047Z,21.10
2022-09-04T07:22:49.046Z,21.17
2022-09-04T07:23:49.008Z,21.34
2022-09-04T07:24:49.006Z,21.31
2022-09-04T07:25:48.982Z,21.47
2022-09-04T07:26:48.984Z,21.46
2022-09-04T07:27:48.974Z,21.64
2022-09-04T07:28:48.946Z,21.74
2022-09-04T07:29:48.951Z,21.90
2022-09-04T07:30:48.919Z,22.09
2022-09-04T07:31:48.957Z,22.21
2022-09-04T07:32:48.896Z,22.42
2022-09-04T07:33:48.946Z,22.65
2022-09-04T07:34:48.874Z,22.75
2022-09-04T07:35:48.868Z,22.95
2022-09-04T07:36:48.851Z,23.02
2022-09-04T07:37:49.250Z,23.02
2022-09-04T07:38:50.452Z,23.16
2022-09-04T07:39:48.862Z,23.28
2022-09-04T07:40:48.809Z,23.35
2022-09-04T07:41:48.826Z,23.47
2022-09-04T07:42:48.790Z,23.65
2022-09-04T07:43:53.968Z,23.79
2022-09-04T07:44:49.782Z,23.98
2022-09-04T07:45:48.832Z,23.83
2022-09-04T07:46:48.756Z,23.72
2022-09-04T07:47:48.771Z,23.66
2022-09-04T07:48:48.731Z,23.55
2022-09-04T07:49:48.720Z,23.69
2022-09-04T07:50:48.736Z,23.68
2022-09-04T07:51:48.709Z,23.66
2022-09-04T07:52:48.681Z,23.60
2022-09-04T07:53:48.684Z,23.66
2022-09-04T07:54:48.654Z,23.60
2022-09-04T07:55:48.657Z,23.60
2022-09-04T07:56:48.631Z,23.69
2022-09-04T07:57:48.621Z,23.80
2022-09-04T07:58:48.652Z,23.79
2022-09-04T07:59:48.616Z,23.85
2022-09-04T08:00:48.592Z,23.60
2022-09-04T08:01:48.641Z,23.50
2022-09-04T08:02:48.575Z,23.22
2022-09-04T08:03:54.523Z,23.05
2022-09-04T08:04:49.625Z,22.92
2022-09-04T08:05:48.554Z,22.90
2022-09-04T08:06:48.521Z,22.90
2022-09-04T08:07:48.525Z,22.79
2022-09-04T08:08:48.511Z,22.86
2022-09-04T08:09:48.495Z,22.80
2022-09-04T08:10:48.511Z,22.85
2022-09-04T08:11:48.469Z,23.02
2022-09-04T08:12:48.459Z,23.09
2022-09-04T08:13:48.454Z,23.07
2022-09-04T08:14:48.436Z,23.04
2022-09-04T08:15:48.511Z,23.00
2022-09-04T08:16:48.456Z,22.90
2022-09-04T08:17:48.403Z,22.85
2022-09-04T08:18:48.403Z,22.91
2022-09-04T08:19:48.451Z,23.01
2022-09-04T08:20:48.367Z,23.02
2022-09-04T08:21:48.363Z,23.09
2022-09-04T08:22:48.366Z,23.05
2022-09-04T08:23:48.347Z,23.15
2022-09-04T08:24:48.362Z,23.25
2022-09-04T08:25:48.311Z,23.28
2022-09-04T08:26:48.310Z,23.15
2022-09-04T08:27:48.303Z,23.20
2022-09-04T08:28:48.306Z,23.02
2022-09-04T08:29:48.266Z,23.02
2022-09-04T08:30:48.354Z,22.92
2022-09-04T08:31:48.249Z,22.91
2022-09-04T08:32:48.239Z,23.00
2022-09-04T08:33:48.233Z,23.09
2022-09-04T08:34:48.232Z,23.09
2022-09-04T08:35:48.202Z,23.23
2022-09-04T08:36:48.205Z,23.32
2022-09-04T08:37:48.181Z,23.40
2022-09-04T08:38:48.176Z,23.40
2022-09-04T08:39:48.327Z,23.53
2022-09-04T08:40:50.184Z,23.50
2022-09-04T08:41:48.144Z,23.38
2022-09-04T08:42:48.134Z,23.40
2022-09-04T08:43:48.144Z,23.40
2022-09-04T08:44:48.106Z,23.27
2022-09-04T08:45:48.188Z,23.27
2022-09-04T08:46:48.152Z,23.32
2022-09-04T08:47:48.067Z,23.28
2022-09-04T08:48:48.079Z,23.32
2022-09-04T08:49:48.048Z,23.36
2022-09-04T08:50:48.034Z,23.43
2022-09-04T08:51:48.666Z,23.35
2022-09-04T08:52:48.012Z,23.19
2022-09-04T08:53:48.004Z,23.09
2022-09-04T08:54:48.025Z,23.23
2022-09-04T08:55:47.982Z,23.13
2022-09-04T08:56:47.996Z,23.04
2022-09-04T08:57:47.979Z,23.23
2022-09-04T08:58:48.290Z,23.22
2022-09-04T08:59:47.963Z,23.32
2022-09-04T09:00:47.924Z,23.40
2022-09-04T09:01:47.965Z,23.51
2022-09-04T09:02:47.967Z,23.66
2022-09-04T09:03:47.929Z,23.76
2022-09-04T09:04:48.074Z,23.72
2022-09-04T09:05:47.875Z,23.36
2022-09-04T09:06:47.858Z,23.07
2022-09-04T09:07:47.868Z,23.07
2022-09-04T09:08:47.863Z,23.05
2022-09-04T09:09:47.825Z,23.19
2022-09-04T09:10:47.836Z,23.23
2022-09-04T09:11:47.822Z,23.39
2022-09-04T09:12:47.817Z,23.53
2022-09-04T09:13:47.782Z,23.58
2022-09-04T09:14:47.792Z,23.60
2022-09-04T09:15:47.763Z,23.73
2022-09-04T09:16:47.793Z,23.79
2022-09-04T09:17:47.736Z,23.87
2022-09-04T09:18:47.733Z,24.00
2022-09-04T09:19:47.739Z,24.05
2022-09-04T09:20:47.704Z,24.12
2022-09-04T09:21:47.691Z,24.20
2022-09-04T09:22:47.704Z,24.10
2022-09-04T09:23:47.693Z,24.25
2022-09-04T09:24:47.681Z,24.12
2022-09-04T09:25:47.651Z,23.95
2022-09-04T09:26:47.636Z,24.12
2022-09-04T09:27:47.647Z,23.97
2022-09-04T09:28:47.636Z,24.02
2022-09-04T09:29:47.604Z,24.16
2022-09-04T09:30:47.628Z,24.20
2022-09-04T09:31:47.588Z,24.28
2022-09-04T09:32:47.590Z,24.32
2022-09-04T09:33:47.603Z,24.45
2022-09-04T09:34:47.567Z,24.49
2022-09-04T09:35:47.541Z,24.28
2022-09-04T09:36:47.530Z,24.15
2022-09-04T09:37:47.537Z,24.18
2022-09-04T09:38:47.522Z,24.18
2022-09-04T09:39:47.559Z,24.25
2022-09-04T09:40:47.547Z,24.08
2022-09-04T09:41:47.508Z,23.76
2022-09-04T09:42:47.477Z,23.78
2022-09-04T09:43:47.461Z,23.87
2022-09-04T09:44:47.491Z,23.90
2022-09-04T09:45:47.535Z,24.00
2022-09-04T09:46:47.442Z,24.06
2022-09-04T09:47:47.515Z,24.18
2022-09-04T09:48:47.410Z,24.34
2022-09-04T09:49:47.413Z,24.42
2022-09-04T09:50:47.408Z,24.60
2022-09-04T09:51:47.378Z,24.61
2022-09-04T09:52:47.387Z,24.62
2022-09-04T09:53:47.685Z,24.60
2022-09-04T09:54:47.400Z,24.53
2022-09-04T09:55:47.331Z,24.55
2022-09-04T09:56:53.864Z,24.47
2022-09-04T09:57:48.356Z,24.52
2022-09-04T09:58:47.286Z,24.57
2022-09-04T09:59:47.286Z,24.57
2022-09-04T10:00:47.375Z,24.50
2022-09-04T10:01:47.253Z,24.49
2022-09-04T10:02:47.381Z,24.49
2022-09-04T10:03:47.230Z,24.61
2022-09-04T10:04:47.272Z,24.53
2022-09-04T10:05:47.216Z,24.58
2022-09-04T10:06:47.213Z,24.53
2022-09-04T10:07:47.237Z,24.60
2022-09-04T10:08:47.175Z,24.55
2022-09-04T10:09:47.225Z,24.61
2022-09-04T10:10:47.209Z,24.52
2022-09-04T10:11:47.166Z,24.55
2022-09-04T10:12:47.133Z,24.55
2022-09-04T10:13:47.158Z,24.50
2022-09-04T10:14:47.138Z,24.60
2022-09-04T10:15:47.143Z,24.55
2022-09-04T10:16:47.184Z,24.57
2022-09-04T10:17:47.142Z,24.55
2022-09-04T10:18:47.064Z,24.61
2022-09-04T10:19:47.121Z,24.53
2022-09-04T10:20:47.050Z,24.80
2022-09-04T10:21:47.077Z,24.83
2022-09-04T10:22:47.080Z,24.84
2022-09-04T10:23:47.010Z,24.91
2022-09-04T10:24:47.006Z,24.71
2022-09-04T10:25:47.019Z,24.68
2022-09-04T10:26:46.987Z,24.68
2022-09-04T10:27:47.028Z,24.71
2022-09-04T10:28:46.959Z,24.68
2022-09-04T10:29:46.960Z,24.68
2022-09-04T10:30:47.036Z,24.68
2022-09-04T10:31:46.947Z,24.76
2022-09-04T10:32:46.917Z,24.68
2022-09-04T10:33:46.908Z,24.69
2022-09-04T10:34:46.909Z,24.69
2022-09-04T10:35:46.911Z,24.77
2022-09-04T10:36:46.897Z,24.83
2022-09-04T10:37:46.900Z,24.83
2022-09-04T10:38:46.849Z,24.98
2022-09-04T10:39:46.960Z,25.03
2022-09-04T10:40:50.738Z,25.15
2022-09-04T10:41:46.907Z,25.23
2022-09-04T10:42:46.843Z,25.40
2022-09-04T10:43:46.810Z,25.28
2022-09-04T10:44:46.796Z,25.32
2022-09-04T10:45:46.870Z,25.25
2022-09-04T10:46:46.766Z,25.35
2022-09-04T10:47:46.773Z,25.39
2022-09-04T10:48:46.756Z,25.36
2022-09-04T10:49:46.731Z,25.28
2022-09-04T10:50:46.723Z,25.25
2022-09-04T10:51:46.860Z,25.35
2022-09-04T10:52:46.716Z,25.28
2022-09-04T10:53:46.704Z,25.40
2022-09-04T10:54:46.697Z,25.39
2022-09-04T10:55:46.681Z,25.46
2022-09-04T10:56:46.656Z,25.25
2022-09-04T10:57:46.682Z,25.17
2022-09-04T10:58:46.659Z,25.13
2022-09-04T10:59:46.639Z,25.05
2022-09-04T11:00:46.646Z,25.03
2022-09-04T11:01:46.599Z,25.13
2022-09-04T11:02:46.640Z,24.91
2022-09-04T11:03:46.594Z,24.87
2022-09-04T11:04:46.566Z,24.99
2022-09-04T11:05:46.551Z,24.93
2022-09-04T11:06:46.571Z,25.09
2022-09-04T11:07:46.535Z,25.18
2022-09-04T11:08:46.517Z,25.17
2022-09-04T11:09:46.542Z,25.14
2022-09-04T11:10:46.533Z,25.09
2022-09-04T11:11:46.495Z,25.00
2022-09-04T11:12:46.471Z,24.87
2022-09-04T11:13:51.122Z,24.81
2022-09-04T11:14:47.491Z,24.80
2022-09-04T11:15:46.458Z,24.69
2022-09-04T11:16:46.483Z,24.69
2022-09-04T11:17:46.456Z,24.84
2022-09-04T11:18:46.436Z,24.83
2022-09-04T11:19:46.393Z,24.81
2022-09-04T11:20:46.381Z,24.78
2022-09-04T11:21:46.382Z,24.83
2022-09-04T11:22:46.365Z,24.90
2022-09-04T11:23:46.371Z,24.81
2022-09-04T11:24:46.335Z,24.84
2022-09-04T11:25:46.320Z,24.81
2022-09-04T11:26:46.379Z,24.85
2022-09-04T11:27:46.311Z,24.90
2022-09-04T11:28:46.321Z,24.83
2022-09-04T11:29:46.279Z,24.78
2022-09-04T11:30:46.271Z,24.69
2022-09-04T11:31:46.347Z,24.78
2022-09-04T11:32:46.260Z,24.69
2022-09-04T11:33:46.240Z,24.73
2022-09-04T11:34:46.273Z,24.78
2022-09-04T11:35:46.230Z,24.77
2022-09-04T11:36:46.216Z,24.73
2022-09-04T11:37:46.260Z,24.68
2022-09-04T11:38:46.210Z,24.81
2022-09-04T11:39:46.253Z,24.71
2022-09-04T11:40:46.210Z,24.88
2022-09-04T11:41:46.159Z,25.09
2022-09-04T11:42:46.174Z,25.18
2022-09-04T11:43:46.130Z,25.42
2022-09-04T11:44:46.125Z,25.61
2022-09-04T11:45:46.117Z,25.79
2022-09-04T11:46:46.106Z,25.98
2022-09-04T11:47:46.105Z,26.09
2022-09-04T11:48:46.105Z,26.12
2022-09-04T11:49:46.062Z,26.26
2022-09-04T11:50:46.046Z,26.40
2022-09-04T11:51:46.039Z,26.51
2022-09-04T11:52:46.085Z,26.67
2022-09-04T11:53:46.024Z,26.84
2022-09-04T11:54:46.025Z,27.12
2022-09-04T11:55:49.468Z,27.18
2022-09-04T11:56:47.015Z,27.32
2022-09-04T11:57:45.992Z,27.36
2022-09-04T11:58:45.986Z,27.31
2022-09-04T11:59:46.127Z,27.24
2022-09-04T12:00:45.942Z,27.28
2022-09-04T12:01:47.953Z,27.32
2022-09-04T12:02:52.980Z,27.34
2022-09-04T12:03:45.989Z,27.34
2022-09-04T12:04:46.094Z,27.46
2022-09-04T12:05:45.899Z,27.63
2022-09-04T12:06:45.920Z,27.62
2022-09-04T12:07:45.959Z,27.55
2022-09-04T12:08:45.862Z,27.55
2022-09-04T12:09:45.845Z,27.59
2022-09-04T12:10:45.837Z,27.65
2022-09-04T12:11:45.874Z,27.60
2022-09-04T12:12:45.819Z,27.36
2022-09-04T12:13:45.816Z,27.37
2022-09-04T12:14:45.815Z,27.13
2022-09-04T12:15:45.778Z,26.91
2022-09-04T12:16:45.821Z,26.85
2022-09-04T12:17:45.759Z,26.69
2022-09-04T12:18:45.751Z,26.54
2022-09-04T12:19:45.762Z,26.43
2022-09-04T12:20:45.727Z,26.36
2022-09-04T12:21:45.743Z,26.26
2022-09-04T12:22:45.706Z,26.12
2022-09-04T12:23:45.697Z,26.20
2022-09-04T12:24:45.689Z,26.06
2022-09-04T12:25:45.693Z,26.13
2022-09-04T12:26:51.594Z,26.09
2022-09-04T12:27:46.699Z,26.01
2022-09-04T12:28:45.654Z,25.94
2022-09-04T12:29:45.643Z,25.88
2022-09-04T12:30:45.641Z,25.73
2022-09-04T12:31:45.758Z,25.61
2022-09-04T12:32:46.608Z,25.47
2022-09-04T12:33:45.607Z,25.42
2022-09-04T12:34:45.578Z,25.32
2022-09-04T12:35:45.581Z,25.24
2022-09-04T12:36:45.584Z,25.21
2022-09-04T12:37:45.549Z,25.09
2022-09-04T12:38:45.545Z,25.06
2022-09-04T12:39:45.651Z,24.95
2022-09-04T12:40:45.519Z,24.93
2022-09-04T12:41:49.673Z,24.87
2022-09-04T12:42:45.492Z,24.83
2022-09-04T12:43:45.500Z,24.57
2022-09-04T12:44:45.471Z,24.61
2022-09-04T12:45:45.516Z,24.49
2022-09-04T12:46:45.451Z,24.39
2022-09-04T12:47:45.446Z,24.34
2022-09-04T12:48:45.432Z,24.24
2022-09-04T12:49:45.432Z,24.20
2022-09-04T12:50:46.363Z,24.08
2022-09-04T12:51:45.411Z,24.09
2022-09-04T12:52:45.405Z,24.05
2022-09-04T12:53:48.200Z,24.06
2022-09-04T12:54:46.360Z,23.95